createdAt,value
2019-05-07T00:02:28.236Z,3.80
2019-05-07T00:04:57.172Z,3.86
2019-05-07T00:07:25.803Z,3.86
2019-05-07T00:09:54.463Z,3.84
2019-05-07T00:12:23.205Z,3.80
2019-05-07T00:15:00.955Z,3.76
2019-05-07T00:17:22.828Z,3.71
2019-05-07T00:19:52.569Z,3.64
2019-05-07T00:22:22.771Z,3.61
2019-05-07T00:24:52.227Z,3.55
2019-05-07T00:27:22.609Z,3.55
2019-05-07T00:29:52.663Z,3.49
2019-05-07T00:32:22.291Z,3.42
2019-05-07T00:34:56.660Z,3.38
2019-05-07T00:37:43.190Z,3.34
2019-05-07T00:40:34.165Z,3.26
2019-05-07T00:43:09.064Z,3.20
2019-05-07T00:45:46.246Z,3.20
2019-05-07T00:48:14.891Z,3.20
2019-05-07T00:50:45.942Z,3.13
2019-05-07T00:53:14.578Z,3.08
2019-05-07T00:55:43.222Z,3.07
2019-05-07T00:58:13.260Z,3.05
2019-05-07T01:00:42.261Z,2.99
2019-05-07T01:03:12.828Z,2.97
2019-05-07T01:05:43.265Z,2.94
2019-05-07T01:08:13.138Z,2.95
2019-05-07T01:10:42.188Z,3.01
2019-05-07T01:13:12.646Z,3.09
2019-05-07T01:15:42.965Z,3.15
2019-05-07T01:18:12.446Z,3.24
2019-05-07T01:20:42.279Z,3.32
2019-05-07T01:23:13.213Z,3.43
2019-05-07T01:25:43.164Z,3.52
2019-05-07T01:28:13.208Z,3.62
2019-05-07T01:30:43.167Z,3.68
2019-05-07T01:33:23.407Z,3.78
2019-05-07T01:36:09.219Z,3.84
2019-05-07T01:38:37.873Z,3.81
2019-05-07T01:41:06.536Z,3.77
2019-05-07T01:43:35.183Z,3.83
2019-05-07T01:46:03.839Z,3.86
2019-05-07T01:48:33.473Z,3.92
2019-05-07T01:51:03.390Z,4.08
2019-05-07T01:53:33.496Z,4.23
2019-05-07T01:56:03.263Z,4.23
2019-05-07T01:58:33.071Z,4.18
2019-05-07T02:01:02.785Z,4.19
2019-05-07T02:03:46.420Z,4.16
2019-05-07T02:06:28.864Z,4.14
2019-05-07T02:09:13.043Z,4.00
2019-05-07T02:11:44.096Z,3.88
2019-05-07T02:14:13.654Z,3.68
2019-05-07T02:16:42.454Z,3.58
2019-05-07T02:19:12.646Z,3.52
2019-05-07T02:21:42.315Z,3.49
2019-05-07T02:24:12.570Z,3.39
2019-05-07T02:26:42.675Z,3.36
2019-05-07T02:29:12.208Z,3.33
2019-05-07T02:31:43.998Z,3.39
2019-05-07T02:34:14.077Z,3.55
2019-05-07T02:36:43.562Z,3.55
2019-05-07T02:39:18.758Z,3.58
2019-05-07T02:41:47.495Z,3.59
2019-05-07T02:44:16.161Z,3.63
2019-05-07T02:46:58.603Z,3.65
2019-05-07T02:49:32.737Z,3.52
2019-05-07T02:52:07.808Z,3.30
2019-05-07T02:55:03.861Z,3.13
2019-05-07T02:57:34.068Z,3.20
2019-05-07T03:00:04.566Z,3.01
2019-05-07T03:02:33.623Z,2.98
2019-05-07T03:05:05.222Z,2.87
2019-05-07T03:07:33.542Z,2.75
2019-05-07T03:10:03.638Z,2.62
2019-05-07T03:12:33.497Z,2.56
2019-05-07T03:15:04.626Z,2.48
2019-05-07T03:17:33.501Z,2.43
2019-05-07T03:20:04.240Z,2.37
2019-05-07T03:22:33.771Z,2.41
2019-05-07T03:25:17.020Z,2.36
2019-05-07T03:27:45.671Z,2.29
2019-05-07T03:30:30.009Z,2.27
2019-05-07T03:33:06.881Z,2.23
2019-05-07T03:35:46.746Z,2.15
2019-05-07T03:38:13.294Z,2.14
2019-05-07T03:40:44.785Z,2.12
2019-05-07T03:43:13.783Z,2.14
2019-05-07T03:45:57.595Z,2.12
2019-05-07T03:48:27.473Z,2.10
2019-05-07T03:50:56.110Z,2.10
2019-05-07T03:53:24.759Z,2.12
2019-05-07T03:55:54.131Z,2.13
2019-05-07T03:58:23.818Z,2.17
2019-05-07T04:00:53.776Z,2.15
2019-05-07T04:03:24.279Z,2.12
2019-05-07T04:05:53.455Z,2.13
2019-05-07T04:08:23.578Z,2.17
2019-05-07T04:10:53.779Z,2.21
2019-05-07T04:13:23.871Z,2.20
2019-05-07T04:15:53.243Z,2.19
2019-05-07T04:18:23.626Z,2.24
2019-05-07T04:20:54.066Z,2.35
2019-05-07T04:23:23.514Z,2.48
2019-05-07T04:25:58.996Z,2.66
2019-05-07T04:28:34.447Z,2.66
2019-05-07T04:31:03.409Z,2.73
2019-05-07T04:33:36.612Z,2.80
2019-05-07T04:36:14.153Z,2.86
2019-05-07T04:38:43.961Z,2.94
2019-05-07T04:41:13.825Z,3.24
2019-05-07T04:43:43.510Z,3.32
2019-05-07T04:46:14.488Z,3.27
2019-05-07T04:48:43.972Z,3.28
2019-05-07T04:51:14.734Z,3.63
2019-05-07T04:53:43.812Z,3.82
2019-05-07T04:56:14.253Z,4.14
2019-05-07T04:58:43.512Z,4.51
2019-05-07T05:01:14.099Z,4.91
2019-05-07T05:03:43.843Z,5.13
2019-05-07T05:06:13.577Z,5.21
2019-05-07T05:08:43.476Z,5.21
2019-05-07T05:11:12.944Z,5.16
2019-05-07T05:13:44.433Z,5.26
2019-05-07T05:16:25.077Z,5.35
2019-05-07T05:18:54.704Z,5.34
2019-05-07T05:21:42.007Z,5.47
2019-05-07T05:24:14.062Z,5.44
2019-05-07T05:26:42.716Z,5.66
2019-05-07T05:29:12.151Z,5.65
2019-05-07T05:31:42.164Z,5.66
2019-05-07T05:34:13.057Z,5.78
2019-05-07T05:36:42.451Z,5.93
2019-05-07T05:39:13.153Z,6.16
2019-05-07T05:41:43.469Z,6.24
2019-05-07T05:44:17.419Z,6.22
2019-05-07T05:46:46.248Z,6.47
2019-05-07T05:49:15.272Z,6.59
2019-05-07T05:51:56.199Z,6.70
2019-05-07T05:54:31.992Z,6.50
2019-05-07T05:57:19.768Z,6.73
2019-05-07T05:59:55.734Z,6.49
2019-05-07T06:02:44.112Z,6.42
2019-05-07T06:05:34.293Z,6.69
2019-05-07T06:08:09.477Z,6.50
2019-05-07T06:10:44.550Z,6.91
2019-05-07T06:13:23.039Z,6.67
2019-05-07T06:16:03.924Z,6.61
2019-05-07T06:18:56.998Z,6.89
2019-05-07T06:21:43.547Z,7.21
2019-05-07T06:24:14.049Z,7.00
2019-05-07T06:26:42.675Z,7.29
2019-05-07T06:29:11.920Z,7.44
2019-05-07T06:31:42.195Z,7.49
2019-05-07T06:34:12.488Z,7.74
2019-05-07T06:36:42.423Z,7.57
2019-05-07T06:39:22.182Z,7.74
2019-05-07T06:42:15.871Z,8.07
2019-05-07T06:44:46.481Z,8.26
2019-05-07T06:47:15.130Z,8.43
2019-05-07T06:49:43.786Z,8.40
2019-05-07T06:52:12.688Z,8.66
2019-05-07T06:54:42.823Z,8.80
2019-05-07T06:57:13.001Z,9.10
2019-05-07T06:59:49.417Z,9.02
2019-05-07T07:02:36.196Z,9.19
2019-05-07T07:05:33.156Z,9.31
2019-05-07T07:08:08.088Z,9.41
2019-05-07T07:10:44.652Z,9.44
2019-05-07T07:13:13.390Z,9.61
2019-05-07T07:15:42.725Z,9.22
2019-05-07T07:18:12.246Z,9.64
2019-05-07T07:20:42.993Z,10.05
2019-05-07T07:23:11.867Z,10.10
2019-05-07T07:25:42.863Z,10.25
2019-05-07T07:28:12.332Z,10.56
2019-05-07T07:31:05.760Z,10.73
2019-05-07T07:33:37.651Z,10.61
2019-05-07T07:36:06.283Z,10.75
2019-05-07T07:38:35.857Z,10.56
2019-05-07T07:41:22.276Z,10.64
2019-05-07T07:43:52.552Z,10.84
2019-05-07T07:46:22.096Z,10.46
2019-05-07T07:49:04.504Z,10.88
2019-05-07T07:51:36.730Z,11.40
2019-05-07T07:53:52.419Z,11.14
2019-05-07T07:56:47.573Z,11.16
2019-05-07T07:59:12.827Z,11.22
2019-05-07T08:01:55.246Z,11.65
2019-05-07T08:04:23.900Z,11.41
2019-05-07T08:07:03.018Z,11.73
2019-05-07T08:09:33.484Z,11.54
2019-05-07T08:12:02.764Z,11.90
2019-05-07T08:14:33.000Z,11.77
2019-05-07T08:17:03.345Z,11.57
2019-05-07T08:19:32.842Z,11.96
2019-05-07T08:22:02.885Z,12.07
2019-05-07T08:24:32.261Z,12.16
2019-05-07T08:27:02.334Z,12.35
2019-05-07T08:29:32.476Z,12.27
2019-05-07T08:32:19.551Z,12.64
2019-05-07T08:34:56.317Z,12.91
2019-05-07T08:37:25.266Z,13.20
2019-05-07T08:39:53.933Z,13.28
2019-05-07T08:42:22.937Z,13.09
2019-05-07T08:45:02.726Z,13.30
2019-05-07T08:47:45.027Z,13.18
2019-05-07T08:50:13.668Z,13.47
2019-05-07T08:52:42.301Z,13.56
2019-05-07T08:55:12.623Z,13.75
2019-05-07T08:57:42.040Z,13.76
2019-05-07T09:00:12.362Z,13.93
2019-05-07T09:02:42.083Z,14.57
2019-05-07T09:05:12.059Z,14.83
2019-05-07T09:07:42.539Z,15.51
2019-05-07T09:10:12.855Z,15.14
2019-05-07T09:12:42.892Z,15.19
2019-05-07T09:15:12.482Z,15.08
2019-05-07T09:17:42.357Z,15.48
2019-05-07T09:20:12.572Z,15.79
2019-05-07T09:22:42.749Z,15.96
2019-05-07T09:25:12.947Z,16.09
2019-05-07T09:27:46.539Z,16.52
2019-05-07T09:30:42.096Z,16.42
2019-05-07T09:33:19.565Z,16.21
2019-05-07T09:35:55.346Z,15.81
2019-05-07T09:38:24.060Z,15.74
2019-05-07T09:40:52.790Z,16.31
2019-05-07T09:43:22.034Z,16.34
2019-05-07T09:45:52.316Z,15.92
2019-05-07T09:48:22.138Z,16.10
2019-05-07T09:50:53.039Z,16.06
2019-05-07T09:53:22.862Z,16.49
2019-05-07T09:55:51.742Z,16.39
2019-05-07T09:58:34.916Z,16.50
2019-05-07T10:00:51.924Z,16.44
2019-05-07T10:03:22.687Z,16.48
2019-05-07T10:05:51.915Z,17.33
2019-05-07T10:08:20.712Z,17.93
2019-05-07T10:10:51.217Z,18.06
2019-05-07T10:13:33.031Z,17.20
2019-05-07T10:16:03.849Z,17.36
2019-05-07T10:18:32.649Z,17.32
2019-05-07T10:21:02.544Z,16.80
2019-05-07T10:23:31.299Z,17.08
2019-05-07T10:26:01.760Z,17.74
2019-05-07T10:28:32.076Z,18.86
2019-05-07T10:31:00.617Z,19.39
2019-05-07T10:33:31.773Z,18.96
2019-05-07T10:36:02.090Z,19.59
2019-05-07T10:38:30.935Z,19.81
2019-05-07T10:40:59.670Z,20.08
2019-05-07T10:43:28.908Z,20.31
2019-05-07T10:46:15.902Z,20.52
2019-05-07T10:48:54.838Z,21.10
2019-05-07T10:51:23.878Z,20.98
2019-05-07T10:53:52.600Z,21.41
2019-05-07T10:56:22.320Z,21.22
2019-05-07T10:58:52.233Z,21.22
2019-05-07T11:01:28.758Z,21.69
2019-05-07T11:03:57.409Z,22.25
2019-05-07T11:06:26.043Z,22.08
2019-05-07T11:08:54.684Z,23.01
2019-05-07T11:11:23.341Z,22.54
2019-05-07T11:13:55.855Z,22.32
2019-05-07T11:16:24.051Z,22.66
2019-05-07T11:18:52.703Z,22.35
2019-05-07T11:21:32.931Z,24.52
2019-05-07T11:24:03.203Z,27.29
2019-05-07T11:26:32.930Z,27.33
2019-05-07T11:29:02.371Z,27.29
2019-05-07T11:31:33.089Z,27.16
2019-05-07T11:34:03.091Z,28.09
2019-05-07T11:36:34.152Z,28.59
2019-05-07T11:39:02.206Z,28.12
2019-05-07T11:41:47.176Z,27.58
2019-05-07T11:44:20.104Z,27.47
2019-05-07T11:47:06.743Z,26.18
2019-05-07T11:49:53.453Z,26.31
2019-05-07T11:52:28.470Z,27.29
2019-05-07T11:54:57.100Z,25.34
2019-05-07T11:57:26.059Z,26.21
2019-05-07T11:59:54.714Z,28.09
2019-05-07T12:02:23.352Z,29.92
2019-05-07T12:04:52.727Z,31.87
2019-05-07T12:07:22.382Z,33.20
2019-05-07T12:09:52.609Z,33.73
2019-05-07T12:12:22.144Z,34.56
2019-05-07T12:14:51.809Z,36.14
2019-05-07T12:17:22.390Z,36.63
2019-05-07T12:19:52.697Z,36.38
2019-05-07T12:22:55.952Z,34.31
2019-05-07T12:25:24.667Z,32.37
2019-05-07T12:27:53.371Z,29.52
2019-05-07T12:30:32.703Z,28.83
2019-05-07T12:33:19.483Z,28.69
2019-05-07T12:35:48.140Z,28.92
2019-05-07T12:38:16.773Z,30.35
2019-05-07T12:40:45.400Z,30.87
2019-05-07T12:43:14.073Z,30.02
2019-05-07T12:45:42.707Z,30.55
2019-05-07T12:48:12.239Z,30.43
2019-05-07T12:50:43.223Z,29.19
2019-05-07T12:53:28.902Z,28.69
2019-05-07T12:55:59.099Z,31.82
2019-05-07T12:58:27.875Z,36.44
2019-05-07T13:01:10.624Z,38.61
2019-05-07T13:03:57.072Z,40.41
2019-05-07T13:06:25.743Z,38.27
2019-05-07T13:08:54.358Z,41.24
2019-05-07T13:11:22.986Z,44.07
2019-05-07T13:13:52.735Z,42.34
2019-05-07T13:16:22.056Z,42.92
2019-05-07T13:18:52.567Z,41.46
2019-05-07T13:21:22.626Z,42.53
2019-05-07T13:23:52.078Z,42.34
2019-05-07T13:26:24.355Z,35.19
2019-05-07T13:28:53.167Z,33.14
2019-05-07T13:31:22.802Z,32.71
2019-05-07T13:33:52.428Z,35.50
2019-05-07T13:36:22.084Z,36.31
2019-05-07T13:39:12.531Z,35.17
2019-05-07T13:42:05.826Z,33.75
2019-05-07T13:44:45.837Z,32.62
2019-05-07T13:47:36.435Z,33.84
2019-05-07T13:50:06.193Z,33.43
2019-05-07T13:52:35.079Z,32.25
2019-05-07T13:55:03.968Z,36.35
2019-05-07T13:57:32.687Z,38.23
2019-05-07T14:00:04.681Z,38.18
2019-05-07T14:02:32.677Z,35.29
2019-05-07T14:05:01.336Z,32.37
2019-05-07T14:07:34.244Z,30.33
2019-05-07T14:10:02.896Z,31.41
2019-05-07T14:12:33.763Z,30.87
2019-05-07T14:15:02.636Z,29.46
2019-05-07T14:17:32.448Z,33.05
2019-05-07T14:20:01.927Z,35.46
2019-05-07T14:22:31.930Z,36.73
2019-05-07T14:25:00.728Z,37.72
2019-05-07T14:27:29.652Z,38.18
2019-05-07T14:29:58.396Z,38.37
2019-05-07T14:32:52.656Z,36.95
2019-05-07T14:35:26.793Z,36.18
2019-05-07T14:38:08.507Z,33.40
2019-05-07T14:40:37.151Z,30.92
2019-05-07T14:43:12.481Z,32.02
2019-05-07T14:45:42.101Z,31.41
2019-05-07T14:48:12.156Z,30.17
2019-05-07T14:50:41.954Z,28.73
2019-05-07T14:53:12.031Z,27.59
2019-05-07T14:55:41.997Z,26.65
2019-05-07T14:58:12.425Z,25.72
2019-05-07T15:00:42.749Z,24.83
2019-05-07T15:03:12.733Z,24.23
2019-05-07T15:05:42.264Z,23.78
2019-05-07T15:08:14.136Z,23.08
2019-05-07T15:10:41.930Z,22.37
2019-05-07T15:13:12.600Z,22.88
2019-05-07T15:15:41.212Z,22.87
2019-05-07T15:18:16.219Z,22.54
2019-05-07T15:20:45.042Z,22.23
2019-05-07T15:23:17.803Z,22.90
2019-05-07T15:25:46.778Z,24.04
2019-05-07T15:28:15.492Z,24.54
2019-05-07T15:30:53.748Z,24.54
2019-05-07T15:33:22.381Z,23.75
2019-05-07T15:35:52.020Z,24.02
2019-05-07T15:38:21.722Z,23.58
2019-05-07T15:40:51.895Z,23.13
2019-05-07T15:43:20.779Z,22.84
2019-05-07T15:45:49.905Z,23.01
2019-05-07T15:48:18.568Z,22.91
2019-05-07T15:50:47.298Z,23.13
2019-05-07T15:53:32.474Z,22.91
2019-05-07T15:56:01.813Z,22.85
2019-05-07T15:58:30.920Z,22.57
2019-05-07T16:01:02.171Z,22.83
2019-05-07T16:03:35.165Z,22.42
2019-05-07T16:06:04.028Z,22.54
2019-05-07T16:08:36.171Z,22.80
2019-05-07T16:11:04.899Z,22.76
2019-05-07T16:13:35.382Z,22.76
2019-05-07T16:16:04.025Z,22.23
2019-05-07T16:18:38.219Z,21.59
2019-05-07T16:21:06.887Z,21.06
2019-05-07T16:23:35.527Z,20.50
2019-05-07T16:26:05.216Z,20.13
2019-05-07T16:28:34.124Z,19.76
2019-05-07T16:31:02.780Z,19.41
2019-05-07T16:33:32.019Z,18.61
2019-05-07T16:36:02.200Z,18.33
2019-05-07T16:38:32.755Z,18.74
2019-05-07T16:41:01.548Z,19.41
2019-05-07T16:43:30.635Z,19.72
2019-05-07T16:45:59.271Z,20.21
2019-05-07T16:48:27.912Z,20.47
2019-05-07T16:50:56.587Z,19.23
2019-05-07T16:53:29.934Z,19.49
2019-05-07T16:55:56.657Z,19.20
2019-05-07T16:58:32.083Z,18.41
2019-05-07T17:01:05.171Z,18.21
2019-05-07T17:03:42.675Z,17.89
2019-05-07T17:06:12.433Z,18.40
2019-05-07T17:08:54.435Z,18.71
2019-05-07T17:11:23.203Z,18.42
2019-05-07T17:13:52.231Z,18.34
2019-05-07T17:16:22.825Z,18.22
2019-05-07T17:18:51.970Z,18.21
2019-05-07T17:21:21.891Z,17.88
2019-05-07T17:23:51.886Z,17.87
2019-05-07T17:26:23.030Z,17.52
2019-05-07T17:28:52.071Z,17.96
2019-05-07T17:31:22.878Z,17.98
2019-05-07T17:33:51.698Z,17.59
2019-05-07T17:36:22.282Z,17.29
2019-05-07T17:38:52.029Z,16.68
2019-05-07T17:41:26.785Z,16.63
2019-05-07T17:43:53.150Z,16.29
2019-05-07T17:46:23.036Z,16.15
2019-05-07T17:48:53.314Z,15.85
2019-05-07T17:51:42.457Z,15.59
2019-05-07T17:54:13.521Z,15.39
2019-05-07T17:56:43.587Z,15.21
2019-05-07T17:59:13.501Z,14.99
2019-05-07T18:02:11.628Z,14.87
2019-05-07T18:04:51.122Z,14.56
2019-05-07T18:07:15.711Z,14.32
2019-05-07T18:09:45.399Z,14.11
2019-05-07T18:12:15.201Z,13.79
2019-05-07T18:14:45.021Z,13.44
2019-05-07T18:17:41.891Z,13.24
2019-05-07T18:20:12.837Z,13.11
2019-05-07T18:22:43.557Z,12.85
2019-05-07T18:25:13.812Z,12.68
2019-05-07T18:27:43.818Z,12.51
2019-05-07T18:30:13.961Z,12.32
2019-05-07T18:32:47.763Z,12.17
2019-05-07T18:35:17.510Z,12.05
2019-05-07T18:37:53.628Z,11.90
2019-05-07T18:40:22.474Z,11.78
2019-05-07T18:42:52.471Z,11.70
2019-05-07T18:45:21.763Z,11.56
2019-05-07T18:47:51.760Z,11.46
2019-05-07T18:50:22.596Z,11.35
2019-05-07T18:52:52.481Z,11.22
2019-05-07T18:55:22.823Z,11.13
2019-05-07T18:57:51.886Z,11.01
2019-05-07T19:00:27.408Z,10.95
2019-05-07T19:02:56.140Z,10.86
2019-05-07T19:05:24.796Z,10.76
2019-05-07T19:08:04.316Z,10.70
2019-05-07T19:10:23.803Z,10.65
2019-05-07T19:12:52.811Z,10.59
2019-05-07T19:15:22.111Z,10.50
2019-05-07T19:17:50.885Z,10.40
2019-05-07T19:20:21.688Z,10.36
2019-05-07T19:22:51.849Z,10.28
2019-05-07T19:25:20.649Z,10.22
2019-05-07T19:27:49.755Z,10.16
2019-05-07T19:30:18.675Z,10.10
2019-05-07T19:32:47.436Z,10.02
2019-05-07T19:35:16.097Z,9.98
2019-05-07T19:37:44.897Z,9.93
2019-05-07T19:40:13.592Z,9.86
2019-05-07T19:42:42.931Z,9.80
2019-05-07T19:45:12.803Z,9.83
2019-05-07T19:47:42.808Z,9.71
2019-05-07T19:50:12.520Z,9.64
2019-05-07T19:52:42.655Z,9.61
2019-05-07T19:55:11.388Z,9.53
2019-05-07T19:57:45.766Z,9.49
2019-05-07T20:00:14.556Z,9.43
2019-05-07T20:02:46.100Z,9.35
2019-05-07T20:05:14.972Z,9.32
2019-05-07T20:07:44.785Z,9.29
2019-05-07T20:10:15.516Z,9.23
2019-05-07T20:12:44.158Z,9.18
2019-05-07T20:15:13.872Z,9.12
2019-05-07T20:17:42.579Z,9.09
2019-05-07T20:20:12.542Z,9.05
2019-05-07T20:22:41.343Z,9.00
2019-05-07T20:25:18.577Z,8.95
2019-05-07T20:27:41.979Z,8.89
2019-05-07T20:30:12.187Z,8.84
2019-05-07T20:32:42.787Z,8.82
2019-05-07T20:35:12.578Z,8.81
2019-05-07T20:37:41.972Z,8.72
2019-05-07T20:40:12.244Z,8.66
2019-05-07T20:42:42.828Z,8.63
2019-05-07T20:45:12.746Z,8.60
2019-05-07T20:47:42.160Z,8.53
2019-05-07T20:50:12.762Z,8.50
2019-05-07T20:52:41.881Z,8.46
2019-05-07T20:55:30.545Z,8.38
2019-05-07T20:57:53.619Z,8.32
2019-05-07T21:00:25.310Z,8.24
2019-05-07T21:03:12.497Z,8.21
2019-05-07T21:05:42.164Z,8.12
2019-05-07T21:08:11.952Z,7.99
2019-05-07T21:10:42.681Z,7.93
2019-05-07T21:13:26.962Z,7.91
2019-05-07T21:15:42.028Z,7.87
2019-05-07T21:18:12.348Z,7.99
2019-05-07T21:20:42.059Z,7.97
2019-05-07T21:23:12.241Z,7.92
2019-05-07T21:25:43.546Z,7.82
2019-05-07T21:28:12.460Z,7.87
2019-05-07T21:30:42.683Z,7.86
2019-05-07T21:33:12.075Z,7.76
2019-05-07T21:35:42.878Z,7.77
2019-05-07T21:38:12.638Z,7.60
2019-05-07T21:40:42.829Z,7.41
2019-05-07T21:43:12.023Z,7.30
2019-05-07T21:45:42.382Z,7.18
2019-05-07T21:48:13.530Z,7.24
2019-05-07T21:50:41.540Z,7.26
2019-05-07T21:53:17.015Z,7.17
2019-05-07T21:56:01.712Z,7.04
2019-05-07T21:58:35.744Z,6.94
2019-05-07T22:01:08.309Z,6.90
2019-05-07T22:03:38.748Z,6.90
2019-05-07T22:06:09.686Z,6.90
2019-05-07T22:08:37.998Z,6.85
2019-05-07T22:11:06.708Z,6.84
2019-05-07T22:13:35.352Z,6.87
2019-05-07T22:16:03.988Z,6.98
2019-05-07T22:18:34.006Z,6.85
2019-05-07T22:21:03.242Z,6.78
2019-05-07T22:23:32.436Z,6.68
2019-05-07T22:26:18.537Z,6.61
2019-05-07T22:28:34.431Z,6.50
2019-05-07T22:31:31.314Z,6.43
2019-05-07T22:34:18.875Z,6.36
2019-05-07T22:36:47.903Z,6.27
2019-05-07T22:39:36.135Z,6.22
2019-05-07T22:42:06.420Z,6.14
2019-05-07T22:44:35.719Z,6.13
2019-05-07T22:47:22.203Z,6.13
2019-05-07T22:49:50.369Z,6.13
2019-05-07T22:52:19.156Z,6.07
2019-05-07T22:54:47.900Z,6.09
2019-05-07T22:57:22.951Z,6.15
2019-05-07T22:59:51.711Z,6.18
2019-05-07T23:02:22.671Z,6.26
2019-05-07T23:04:52.102Z,6.21
2019-05-07T23:07:22.289Z,6.20
2019-05-07T23:09:52.248Z,6.19
2019-05-07T23:12:21.985Z,6.13
2019-05-07T23:14:51.811Z,6.00
2019-05-07T23:17:22.213Z,5.96
2019-05-07T23:19:53.010Z,5.87
2019-05-07T23:22:22.611Z,5.91
2019-05-07T23:24:52.001Z,5.91
2019-05-07T23:27:22.817Z,5.83
2019-05-07T23:29:52.888Z,5.81
2019-05-07T23:32:22.258Z,5.81
2019-05-07T23:34:52.757Z,5.78
2019-05-07T23:37:22.484Z,5.78
2019-05-07T23:39:53.216Z,5.77
2019-05-07T23:42:25.414Z,5.82
2019-05-07T23:44:54.047Z,5.79
2019-05-07T23:47:22.851Z,5.83
2019-05-07T23:49:52.373Z,5.87
2019-05-07T23:52:22.553Z,5.82
2019-05-07T23:54:52.389Z,5.76
2019-05-07T23:57:23.110Z,5.68
2019-05-07T23:59:52.960Z,5.61
